Список аэропортов
Фактическая погода:

01 марта, 22:30
Температура: +9°C (+7.3*)
Ветер: юго-восточный 3 м/с
Давление: *757 мм
несуществ. обл.
Время (МСК)Темп. СВетерВлажностьДавлениеОблачностьОсадки
21:00+6Ю, 1 м/с79%1012 гПамалооблачно
22:00+6ЮВ, 3 м/с81%1011 гПаясно
23:00+6ЮВ, 3 м/с77%1011 гПаоблачно
02 марта
00:00+6ЮВ, 3 м/с72%1011 гПаоблачно
01:00+7ЮВ, 4 м/с70%1011 гПамалооблачно
02:00+6ЮВ, 4 м/с72%1010 гПаясно
03:00+6ЮВ, 3 м/с74%1010 гПамалооблачно
04:00+6ЮВ, 3 м/с76%1010 гПамалооблачно
05:00+6ЮВ, 3 м/с74%1010 гПас прояснениями
06:00+7ЮВ, 3 м/с73%1010 гПаоблачно
07:00+7Ю, 3 м/с76%1010 гПаоблачносл. дождь
08:00+7Ю, 3 м/с79%1010 гПас прояснениями
09:00+8Ю, 3 м/с75%1010 гПаоблачно
10:00+11Ю, 2 м/с64%1010 гПаоблачносл. дождь
11:00+13З, 2 м/с58%1010 гПаоблачно
12:00+14З, 2 м/с55%1010 гПаоблачносл. дождь
13:00+15СЗ, 2 м/с53%1010 гПаоблачносл. дождь
14:00+16СЗ, 2 м/с51%1010 гПаоблачно
15:00+17З, 2 м/с49%1010 гПаоблачно
16:00+17З, 3 м/с49%1010 гПаоблачно
17:00+15З, 4 м/с54%1010 гПаясно
18:00+12З, 4 м/с63%1011 гПас прояснениями
19:00+10З, 2 м/с70%1011 гПас прояснениями
20:00+9ЮЗ, 2 м/с76%1011 гПамалооблачно
21:00+8Ю, 2 м/с81%1012 гПамалооблачно
22:00+8ЮВ, 3 м/с84%1012 гПаоблачно
23:00+7Ю, 1 м/с92%1012 гПаоблачно
03 марта
00:00+5ЮЗ, 1 м/с98%1012 гПас прояснениями
01:00+5Ю, 2 м/с97%1012 гПаоблачно
02:00+5Ю, 3 м/с96%1012 гПаоблачно
03:00+5Ю, 2 м/с98%1012 гПаоблачно
04:00+4ЮЗ, 2 м/с99%1012 гПаоблачно
05:00+5ЮЗ, 3 м/с100%1013 гПаоблачно
06:00+6ЮЗ, 2 м/с100%1013 гПаоблачно
07:00+6ЮЗ, 3 м/с100%1013 гПаоблачно
08:00+6З, 3 м/с99%1013 гПаоблачно
09:00+6З, 2 м/с98%1014 гПаоблачно
10:00+6З, 2 м/с96%1014 гПаоблачно
11:00+7З, 3 м/с91%1014 гПаоблачно
12:00+8З, 4 м/с81%1014 гПаоблачно
13:00+10СЗ, 4 м/с63%1014 гПас прояснениями
14:00+12З, 5 м/с50%1014 гПаясно
15:00+12З, 6 м/с45%1014 гПаясно
16:00+12З, 6 м/с46%1014 гПаоблачно
17:00+10З, 7 м/с57%1015 гПаоблачно
18:00+9З, 5 м/с60%1016 гПаоблачносл. дождь
19:00+8З, 5 м/с63%1016 гПаоблачно
20:00+7З, 4 м/с72%1017 гПаоблачно
21:00+6ЮЗ, 4 м/с80%1018 гПамалооблачно